Airfield :
LOGIN :

Register | Disclaimer

   EN    FR    IT 

 










Legend :    VFR   Marginal VFR   IFR   Intensive IFR   Very Intensive IFR
Visi :
Ceiling :
>= 8 km
>= 3000ft
5 to 8 km
1000 to 3000 ft
1500m to 5 km
500 to 1000 ft
800 to 1500m
200 to 500 ft
< 800m
< 200 ft
Symbols :   Thunderstorms  Fog  Heavy snow  Heavy precipitations  Wind > 20 kt
SIGMETs :     Misc.  Thunderstorms  Icing  Turbulence  Mountain Waves  Volcanic Ashes







- Airport Elevation : 46 ft
- IATA code : SNN


EINN - Shannon

CURRENT METAR :
  • 120330Z 13005KT 0300 R24/0550D R06/0700N FG BKN001 03/03 Q1015 NOSIG

EXPIRED METARs :
  • 120300Z 11003KT 0700 R24/0800N R06/1800U FG FEW001 03/03 Q1015 TEMPO BKN001
  • 120230Z 11002KT 3000 R24/0650U R06/P2000N MIFG FEW030 04/03 Q1015 TEMPO 0800 FG BKN001
  • 120200Z 13003KT 6000 R24/1000D R06/P2000N MIFG FEW030 04/03 Q1016 BECMG 4000
  • 120130Z 26002KT 6000 R24/0900U R06/P2000N MIFG FEW030 04/03 Q1015 BECMG 4000
  • 120100Z 26003KT 9000 FEW030 04/03 Q1015 BECMG 4000

TAF TAF EINN
Valid from the 12 at 00:00 until the 13 at 00:00 UTC


112300Z 1200/1224 22005KT 9999 FEW015 SCT026
BECMG 1200/1202 18006KT 3000 BR
TEMPO 1200/1210 0200 FG BKN001
BECMG 1204/1206 12007KT
BECMG 1210/1212 14013KT 9999 NSW
BECMG 1214/1216 14015G26KT
BECMG 1217/1219 14019G31KT
TEMPO 1220/1224 13023G36KT
PROB30
TEMPO 1222/1224 5000 -RA BKN015
No reported NOTAMs for that airfield.



MET'MAP, your aeronautical weather chart ! - Copyright ORBIFLY December 2007 - Disclaimer

ORBIFLY MET'MAP TEAM :

Programming & Development : Alexandra Zaïnal
Concept & Development : Baudouin d'Aumeries
Co-Development & Prog : Marc-Olivier Méhu
Technical & hardware support : Manuel Goepfert

Contact : metmap@orbifly.com




SOURCES & CREDITS :

   NOAA